Time;durP1;ratioP1;P1;durP2;ratioP2;P2;SDS_P1;SDS_P2;PMS_P1;PMS_P2;Temp;Humidity;BMP_temperature;BMP_pressure;BME280_temperature;BME280_humidity;BME280_pressure;Samples;Min_cycle;Max_cycle;Signal;HPM_P1;HPM_P2
2021/01/11 00:01:39;;;;;;;33.47;2.65;;;2.30;99.90;;;;;;5025076;28;20026;-76
2021/01/11 00:04:05;;;;;;;15.93;2.58;;;2.30;99.90;;;;;;5029839;28;20025;-75
2021/01/11 00:06:41;;;;;;;31.80;3.22;;;2.20;99.90;;;;;;5030123;28;20268;-76
2021/01/11 00:09:07;;;;;;;29.45;2.85;;;2.30;99.90;;;;;;5030450;28;20052;-76
2021/01/11 00:11:35;;;;;;;25.40;2.70;;;2.30;99.90;;;;;;5031046;28;20029;-76
2021/01/11 00:14:02;;;;;;;19.05;2.47;;;2.30;99.90;;;;;;5031323;28;20028;-76
2021/01/11 00:16:28;;;;;;;30.30;3.60;;;2.40;99.90;;;;;;5031317;28;20171;-76
2021/01/11 00:18:54;;;;;;;45.80;4.57;;;2.40;99.90;;;;;;5031462;28;20108;-76
2021/01/11 00:21:19;;;;;;;46.17;4.90;;;2.40;99.90;;;;;;5031069;28;20116;-76
2021/01/11 00:23:45;;;;;;;26.05;2.83;;;2.50;99.90;;;;;;5029817;28;20148;-76
2021/01/11 00:26:11;;;;;;;23.45;2.80;;;2.50;99.90;;;;;;5031076;28;20029;-76
2021/01/11 00:28:39;;;;;;;33.53;3.33;;;2.50;99.90;;;;;;5029957;28;20504;-76
2021/01/11 00:31:05;;;;;;;25.35;2.35;;;2.60;99.90;;;;;;5030984;28;20014;-76
2021/01/11 00:33:30;;;;;;;45.33;4.32;;;2.70;99.90;;;;;;5034416;28;20035;-76
2021/01/11 00:35:56;;;;;;;36.00;3.88;;;2.70;99.90;;;;;;5034691;28;20156;-76
2021/01/11 00:38:22;;;;;;;28.60;2.83;;;2.70;99.90;;;;;;5034395;28;20033;-76
2021/01/11 00:40:47;;;;;;;38.08;3.40;;;2.70;99.90;;;;;;5034676;28;20033;-76
2021/01/11 00:43:13;;;;;;;51.30;4.13;;;2.80;99.90;;;;;;5033461;28;20063;-76
2021/01/11 00:45:39;;;;;;;27.20;3.70;;;2.90;99.90;;;;;;5034399;28;20049;-76
2021/01/11 00:48:05;;;;;;;40.03;3.55;;;2.90;99.90;;;;;;5034500;28;20524;-76
2021/01/11 00:50:30;;;;;;;36.70;3.95;;;2.90;99.90;;;;;;5034513;28;20026;-76
2021/01/11 00:52:56;;;;;;;43.90;3.53;;;3.00;99.90;;;;;;5034453;28;20104;-76
2021/01/11 00:55:21;;;;;;;39.83;3.33;;;3.00;99.90;;;;;;5032907;28;20037;-76
2021/01/11 00:57:47;;;;;;;32.00;3.55;;;3.00;99.90;;;;;;5033181;28;20029;-76
2021/01/11 01:00:14;;;;;;;46.17;3.85;;;3.00;99.90;;;;;;5032831;28;20029;-76
2021/01/11 01:02:40;;;;;;;26.40;3.00;;;3.00;99.90;;;;;;5032939;28;20025;-76
2021/01/11 01:05:09;;;;;;;35.75;4.15;;;3.00;99.90;;;;;;5034170;28;20100;-76
2021/01/11 01:07:40;;;;;;;26.35;2.60;;;3.10;99.90;;;;;;5034264;28;20026;-76
2021/01/11 01:10:06;;;;;;;25.50;2.95;;;3.00;99.90;;;;;;5034161;28;20037;-76
2021/01/11 01:12:32;;;;;;;36.72;3.38;;;3.10;99.90;;;;;;5034038;28;20422;-76
2021/01/11 01:14:58;;;;;;;36.30;3.45;;;3.10;99.90;;;;;;5032722;28;20026;-76
2021/01/11 01:17:23;;;;;;;33.35;2.80;;;3.20;99.90;;;;;;5032932;28;20079;-76
2021/01/11 01:19:49;;;;;;;31.55;3.20;;;3.20;99.90;;;;;;5033839;28;20551;-76
2021/01/11 01:22:14;;;;;;;22.75;2.92;;;3.30;99.90;;;;;;5034101;28;20041;-76
2021/01/11 01:24:40;;;;;;;24.20;3.00;;;3.30;99.90;;;;;;5033656;28;20059;-76
2021/01/11 01:27:06;;;;;;;27.17;2.55;;;3.40;99.90;;;;;;5033671;28;20033;-76
2021/01/11 01:29:31;;;;;;;27.05;2.30;;;3.40;99.90;;;;;;5033630;28;20394;-76
2021/01/11 01:31:57;;;;;;;26.35;3.08;;;3.50;99.90;;;;;;5033863;28;20037;-76
2021/01/11 01:34:22;;;;;;;24.48;2.30;;;3.60;99.90;;;;;;5033701;28;20018;-75
2021/01/11 01:36:48;;;;;;;20.80;2.78;;;3.70;99.90;;;;;;5033757;28;20371;-76
2021/01/11 01:39:13;;;;;;;24.67;2.83;;;3.60;99.90;;;;;;5032188;28;20494;-76
2021/01/11 01:41:39;;;;;;;20.25;2.05;;;3.70;99.90;;;;;;5032206;28;20509;-75
2021/01/11 01:44:05;;;;;;;32.03;2.75;;;3.60;99.90;;;;;;5032910;28;20029;-76
2021/01/11 01:46:31;;;;;;;32.20;2.67;;;3.70;99.90;;;;;;5032226;28;20075;-76
2021/01/11 01:49:01;;;;;;;23.20;2.65;;;3.70;99.90;;;;;;5033177;28;20397;-76
2021/01/11 01:51:27;;;;;;;16.75;1.88;;;3.70;99.90;;;;;;5033565;28;20025;-75
2021/01/11 01:53:53;;;;;;;21.55;1.98;;;3.60;99.90;;;;;;5031786;28;20137;-76
2021/01/11 01:56:18;;;;;;;23.52;2.20;;;3.60;99.90;;;;;;5033199;28;20034;-75
2021/01/11 01:58:46;;;;;;;22.02;2.47;;;3.60;99.90;;;;;;5033596;28;20026;-76
2021/01/11 02:01:12;;;;;;;14.13;2.65;;;3.60;99.90;;;;;;5033351;28;20034;-76
2021/01/11 02:03:38;;;;;;;15.07;1.70;;;3.50;99.90;;;;;;5032767;28;20022;-76
2021/01/11 02:06:04;;;;;;;20.27;2.10;;;3.60;99.90;;;;;;5033105;28;20517;-76
2021/01/11 02:08:42;;;;;;;29.70;3.08;;;3.60;99.90;;;;;;5032979;28;20539;-76
2021/01/11 02:11:30;;;;;;;20.60;1.95;;;3.50;99.90;;;;;;5031827;28;20074;-76
2021/01/11 02:14:04;;;;;;;15.18;1.60;;;3.60;99.90;;;;;;5032612;28;20133;-75
2021/01/11 02:16:46;;;;;;;31.15;2.20;;;3.60;99.90;;;;;;5032934;28;20037;-75
2021/01/11 02:19:17;;;;;;;27.40;3.67;;;3.60;99.90;;;;;;5032893;28;20095;-76
2021/01/11 02:22:07;;;;;;;18.02;1.75;;;3.70;99.90;;;;;;5031379;28;20029;-76
2021/01/11 02:25:03;;;;;;;14.07;1.83;;;3.70;99.90;;;;;;5032638;28;20036;-76
2021/01/11 02:27:34;;;;;;;19.95;2.78;;;3.70;99.90;;;;;;5031494;28;20021;-75
2021/01/11 02:30:28;;;;;;;27.48;4.18;;;3.80;99.90;;;;;;5032792;28;20494;-75
2021/01/11 02:32:57;;;;;;;22.47;4.17;;;3.90;99.90;;;;;;5032496;28;20041;-75
2021/01/11 02:35:24;;;;;;;29.95;4.00;;;4.00;99.90;;;;;;5032462;28;20047;-75
2021/01/11 02:37:50;;;;;;;34.75;4.80;;;4.10;99.90;;;;;;5032010;28;20367;-75
2021/01/11 02:40:16;;;;;;;31.60;5.78;;;4.10;99.90;;;;;;5032557;28;20025;-75
2021/01/11 02:42:42;;;;;;;23.77;6.25;;;4.10;99.90;;;;;;5032619;28;20026;-75
2021/01/11 02:45:09;;;;;;;40.30;8.55;;;4.20;99.90;;;;;;5032674;28;20057;-75
2021/01/11 02:47:59;;;;;;;26.10;8.07;;;4.20;99.90;;;;;;5030800;28;20033;-75
2021/01/11 02:50:26;;;;;;;30.98;7.43;;;4.20;99.90;;;;;;5032364;28;20397;-75
2021/01/11 02:53:31;;;;;;;30.52;8.45;;;4.20;99.90;;;;;;5032199;28;20436;-75
2021/01/11 02:56:01;;;;;;;30.38;8.45;;;4.20;99.90;;;;;;4989534;28;20042;-75
2021/01/11 02:58:52;;;;;;;40.35;10.43;;;4.20;99.90;;;;;;5024960;28;20041;-75
2021/01/11 03:01:17;;;;;;;37.80;11.85;;;4.30;99.90;;;;;;5032252;28;20034;-75
2021/01/11 03:03:51;;;;;;;41.08;11.10;;;4.30;99.90;;;;;;5031775;28;20486;-75
2021/01/11 03:06:17;;;;;;;42.15;11.13;;;4.30;99.90;;;;;;5031989;28;20504;-75
2021/01/11 03:08:43;;;;;;;31.63;11.95;;;4.30;99.90;;;;;;5031854;28;20061;-75
2021/01/11 03:11:08;;;;;;;31.90;12.45;;;4.30;99.90;;;;;;5030892;28;20394;-75
2021/01/11 03:13:34;;;;;;;44.88;13.05;;;4.40;99.90;;;;;;5031529;28;20144;-75
2021/01/11 03:16:00;;;;;;;45.75;13.65;;;4.40;99.90;;;;;;5030643;28;20029;-75
2021/01/11 03:18:25;;;;;;;48.45;15.65;;;4.50;99.90;;;;;;5031485;28;20030;-75
2021/01/11 03:20:51;;;;;;;50.28;15.50;;;4.50;99.90;;;;;;5030782;28;20025;-75
2021/01/11 03:23:17;;;;;;;45.45;15.10;;;4.60;99.90;;;;;;5031699;28;20025;-75
2021/01/11 03:25:42;;;;;;;43.72;16.50;;;4.60;99.90;;;;;;5030285;28;20076;-75
2021/01/11 03:28:08;;;;;;;45.00;17.23;;;4.60;99.90;;;;;;5031755;28;20061;-75
2021/01/11 03:30:34;;;;;;;44.38;16.48;;;4.60;99.90;;;;;;5030588;28;20033;-75
2021/01/11 03:33:00;;;;;;;47.70;16.60;;;4.60;99.90;;;;;;5031838;28;20087;-75
2021/01/11 03:35:28;;;;;;;42.38;16.88;;;4.60;99.90;;;;;;5029895;28;20101;-75
2021/01/11 03:37:53;;;;;;;50.17;16.35;;;4.70;99.90;;;;;;5031547;28;20107;-75
2021/01/11 03:40:19;;;;;;;62.17;19.73;;;4.70;99.90;;;;;;5030206;28;20505;-75
2021/01/11 03:42:44;;;;;;;50.72;19.30;;;4.70;99.90;;;;;;5031802;28;20049;-75
2021/01/11 03:45:11;;;;;;;43.67;19.10;;;4.80;99.90;;;;;;5031203;28;20025;-75
2021/01/11 03:47:36;;;;;;;48.28;20.35;;;4.80;99.90;;;;;;5031701;28;20064;-75
2021/01/11 03:50:06;;;;;;;54.95;22.13;;;4.90;99.90;;;;;;5031938;28;20120;-74
2021/01/11 03:52:35;;;;;;;61.63;23.10;;;4.90;99.90;;;;;;5031614;28;20034;-75
2021/01/11 03:55:02;;;;;;;58.35;23.15;;;5.00;99.90;;;;;;5030821;28;20104;-74
2021/01/11 03:57:29;;;;;;;51.67;21.77;;;5.10;99.90;;;;;;5030399;28;20025;-74
2021/01/11 03:59:55;;;;;;;45.35;21.58;;;5.00;99.90;;;;;;5031607;28;20390;-75
2021/01/11 04:02:20;;;;;;;53.15;22.88;;;5.10;99.90;;;;;;5031513;28;20030;-74
2021/01/11 04:04:46;;;;;;;56.00;21.17;;;5.10;99.90;;;;;;5031023;28;20034;-75
2021/01/11 04:07:12;;;;;;;66.95;23.25;;;5.10;99.90;;;;;;5032570;28;20028;-75
2021/01/11 04:09:37;;;;;;;65.32;21.80;;;5.10;99.90;;;;;;5035190;28;20043;-75
2021/01/11 04:12:03;;;;;;;73.95;22.52;;;5.10;99.90;;;;;;5035485;28;20022;-75
2021/01/11 04:14:29;;;;;;;59.22;22.33;;;5.10;99.90;;;;;;5034808;28;20036;-75
2021/01/11 04:16:54;;;;;;;68.80;24.17;;;5.10;99.90;;;;;;5035255;28;20432;-74
2021/01/11 04:19:20;;;;;;;67.55;24.60;;;5.10;99.90;;;;;;5035299;28;20453;-75
2021/01/11 04:21:45;;;;;;;72.32;25.13;;;5.10;99.90;;;;;;5035269;28;20089;-75
2021/01/11 04:24:11;;;;;;;64.63;24.40;;;5.10;99.90;;;;;;5033233;28;20033;-74
2021/01/11 04:26:36;;;;;;;78.70;24.77;;;5.10;99.90;;;;;;5034983;28;20026;-75
2021/01/11 04:29:02;;;;;;;86.93;27.42;;;5.10;99.90;;;;;;5035133;28;20025;-75
2021/01/11 04:31:28;;;;;;;74.85;24.05;;;5.10;99.90;;;;;;5035085;28;20378;-75
2021/01/11 04:33:53;;;;;;;75.60;26.33;;;5.10;99.90;;;;;;5034644;28;20029;-75
2021/01/11 04:36:19;;;;;;;81.20;25.98;;;5.10;99.90;;;;;;5034867;28;20024;-75
2021/01/11 04:38:44;;;;;;;69.35;25.88;;;5.10;99.90;;;;;;5034586;28;20128;-75
2021/01/11 04:41:11;;;;;;;66.45;24.58;;;5.10;99.90;;;;;;5034855;28;20513;-75
2021/01/11 04:43:43;;;;;;;71.97;23.50;;;5.00;99.90;;;;;;5034531;28;20025;-75
2021/01/11 04:46:09;;;;;;;55.47;24.88;;;5.10;99.90;;;;;;5034669;28;20036;-75
2021/01/11 04:48:35;;;;;;;63.83;23.17;;;5.10;99.90;;;;;;5034764;28;20017;-75
2021/01/11 04:51:01;;;;;;;57.03;23.88;;;5.10;99.90;;;;;;5034730;28;20095;-75
2021/01/11 04:53:28;;;;;;;70.72;22.40;;;5.10;99.90;;;;;;5033061;28;20052;-75
2021/01/11 04:55:55;;;;;;;56.03;21.08;;;5.10;99.90;;;;;;5032865;28;20075;-75
2021/01/11 04:58:21;;;;;;;60.40;21.67;;;5.10;99.90;;;;;;5033404;28;20037;-75
2021/01/11 05:00:48;;;;;;;77.40;21.65;;;5.10;99.90;;;;;;5034619;28;20136;-75
2021/01/11 05:03:14;;;;;;;56.38;20.35;;;5.10;99.90;;;;;;5032901;28;20509;-75
2021/01/11 05:05:45;;;;;;;66.22;21.65;;;5.10;99.90;;;;;;5032713;28;20026;-75
2021/01/11 05:08:11;;;;;;;50.30;19.77;;;5.10;99.90;;;;;;5034267;28;20100;-75
2021/01/11 05:10:40;;;;;;;56.85;21.58;;;5.10;99.90;;;;;;5034335;28;20057;-75
2021/01/11 05:13:10;;;;;;;68.72;22.95;;;5.10;99.90;;;;;;5034550;28;20017;-74
2021/01/11 05:15:38;;;;;;;58.92;22.38;;;5.10;99.90;;;;;;5033772;28;20053;-74
2021/01/11 05:18:18;;;;;;;65.38;23.05;;;5.10;99.90;;;;;;5032587;28;20028;-74
2021/01/11 05:20:44;;;;;;;63.65;21.27;;;5.00;99.90;;;;;;5032684;28;20030;-75
2021/01/11 05:23:14;;;;;;;63.95;21.90;;;5.00;99.90;;;;;;5032546;28;20017;-75
2021/01/11 05:25:41;;;;;;;67.68;20.85;;;5.10;99.90;;;;;;5033720;28;20065;-74
2021/01/11 05:28:09;;;;;;;58.58;21.52;;;5.10;99.90;;;;;;5034062;28;20025;-74
2021/01/11 05:30:40;;;;;;;68.88;24.20;;;5.00;99.90;;;;;;5032785;28;20029;-75
2021/01/11 05:33:08;;;;;;;61.00;22.55;;;5.00;99.90;;;;;;5032426;28;20489;-75
2021/01/11 05:35:34;;;;;;;65.25;23.20;;;5.10;99.90;;;;;;5012597;28;20025;-75
2021/01/11 05:38:01;;;;;;;71.35;25.73;;;5.00;99.90;;;;;;5016101;28;20022;-75
2021/01/11 05:40:28;;;;;;;72.20;25.20;;;5.10;99.90;;;;;;5033870;28;20021;-75
2021/01/11 05:42:59;;;;;;;81.47;26.88;;;5.10;99.90;;;;;;5033803;28;20109;-75
2021/01/11 05:45:29;;;;;;;69.88;28.10;;;5.00;99.90;;;;;;5031771;28;20108;-75
2021/01/11 05:48:05;;;;;;;82.00;26.10;;;5.10;99.90;;;;;;5033695;28;20527;-74
2021/01/11 05:50:32;;;;;;;83.57;26.27;;;5.00;99.90;;;;;;5033658;28;20025;-75
2021/01/11 05:52:57;;;;;;;84.45;30.42;;;5.00;99.90;;;;;;5031949;28;20028;-75
2021/01/11 05:55:25;;;;;;;89.25;30.63;;;5.00;99.90;;;;;;5031912;28;20029;-75
2021/01/11 05:57:57;;;;;;;75.97;29.83;;;5.00;99.90;;;;;;5033444;28;20059;-75
2021/01/11 06:00:24;;;;;;;95.95;29.17;;;5.00;99.90;;;;;;5032398;28;20018;-75
2021/01/11 06:02:50;;;;;;;82.10;32.20;;;5.10;99.90;;;;;;5032067;28;20033;-75
2021/01/11 06:05:17;;;;;;;104.45;30.80;;;5.10;99.90;;;;;;5032535;28;20033;-75
2021/01/11 06:07:44;;;;;;;98.18;33.35;;;5.10;99.90;;;;;;5033244;28;20036;-74
2021/01/11 06:10:11;;;;;;;101.88;35.03;;;5.10;99.90;;;;;;5033272;28;20021;-75
2021/01/11 06:12:38;;;;;;;101.90;34.75;;;5.10;99.90;;;;;;5033112;28;20044;-75
2021/01/11 06:15:05;;;;;;;106.13;31.38;;;5.10;99.90;;;;;;5032828;28;20025;-74
2021/01/11 06:17:31;;;;;;;97.68;31.90;;;5.10;99.90;;;;;;5031804;28;20029;-75
2021/01/11 06:19:57;;;;;;;101.32;32.65;;;5.00;99.90;;;;;;5033078;28;20113;-74
2021/01/11 06:22:45;;;;;;;89.32;30.25;;;5.00;99.90;;;;;;5033032;28;20056;-75
2021/01/11 06:25:22;;;;;;;87.35;29.92;;;5.10;99.90;;;;;;5032332;28;20025;-74
2021/01/11 06:28:05;;;;;;;85.47;32.28;;;5.00;99.90;;;;;;5032831;28;20026;-74
2021/01/11 06:30:34;;;;;;;94.47;32.03;;;5.00;99.90;;;;;;5031498;28;20516;-75
2021/01/11 06:33:09;;;;;;;94.78;32.78;;;5.00;99.90;;;;;;5032839;28;20398;-74
2021/01/11 06:35:40;;;;;;;101.22;31.75;;;5.00;99.90;;;;;;5012733;28;20022;-74
2021/01/11 06:38:18;;;;;;;84.82;31.42;;;4.90;99.90;;;;;;5015873;28;20096;-74
2021/01/11 06:40:51;;;;;;;107.10;31.80;;;5.00;99.90;;;;;;5032765;28;20045;-75
2021/01/11 06:43:17;;;;;;;104.57;33.67;;;5.00;99.90;;;;;;5032579;28;20108;-75
2021/01/11 06:45:45;;;;;;;125.25;37.63;;;4.90;99.90;;;;;;5032037;28;20048;-75
2021/01/11 06:48:16;;;;;;;112.18;36.53;;;5.00;99.90;;;;;;5032551;28;20025;-75
2021/01/11 06:50:44;;;;;;;110.55;37.45;;;5.00;99.90;;;;;;5032444;28;20101;-75
2021/01/11 06:53:10;;;;;;;110.47;36.88;;;4.90;99.90;;;;;;5030847;28;20440;-75
2021/01/11 06:55:35;;;;;;;137.82;40.13;;;4.90;99.90;;;;;;5032046;28;20512;-75
2021/01/11 06:58:02;;;;;;;131.63;38.08;;;4.90;99.90;;;;;;5032377;28;20025;-75
2021/01/11 07:00:34;;;;;;;132.00;37.65;;;4.90;99.90;;;;;;5030977;28;20049;-75
2021/01/11 07:03:01;;;;;;;124.50;39.37;;;4.90;99.90;;;;;;5031014;28;20025;-75
2021/01/11 07:05:33;;;;;;;127.18;36.50;;;4.90;99.90;;;;;;5031674;28;20037;-75
2021/01/11 07:08:07;;;;;;;131.25;39.47;;;4.90;99.90;;;;;;5031908;28;20025;-74
2021/01/11 07:10:37;;;;;;;158.80;41.60;;;4.90;99.90;;;;;;5031937;28;20026;-75
2021/01/11 07:13:18;;;;;;;118.80;37.03;;;4.90;99.90;;;;;;5030775;28;20032;-74
2021/01/11 07:15:52;;;;;;;130.45;38.35;;;4.90;99.90;;;;;;5031839;28;20026;-75
2021/01/11 07:18:36;;;;;;;135.02;39.38;;;4.90;99.90;;;;;;5032047;28;20022;-75
2021/01/11 07:21:12;;;;;;;;;;;4.90;99.90;;;;;;5032177;28;20107;-74
2021/01/11 07:23:38;;;;;;;135.60;37.60;;;5.00;99.90;;;;;;5030463;28;19909;-74
2021/01/11 07:26:07;;;;;;;128.88;37.90;;;5.00;99.90;;;;;;5031852;28;20037;-74
2021/01/11 07:28:32;;;;;;;131.88;39.17;;;5.00;99.90;;;;;;5031934;28;20048;-75
2021/01/11 07:30:58;;;;;;;150.30;44.08;;;5.00;99.90;;;;;;5031632;28;20483;-75
2021/01/11 07:33:24;;;;;;;143.05;40.50;;;4.90;99.90;;;;;;5024840;28;20381;-75
2021/01/11 07:35:50;;;;;;;126.53;38.88;;;4.90;99.90;;;;;;5028998;28;20040;-75
2021/01/11 07:38:18;;;;;;;117.35;38.75;;;4.90;99.90;;;;;;5030044;28;20025;-74
2021/01/11 07:40:44;;;;;;;135.68;39.03;;;4.90;99.90;;;;;;5031060;28;20026;-74
2021/01/11 07:43:10;;;;;;;121.53;37.55;;;5.00;99.90;;;;;;5029573;28;20021;-74
2021/01/11 07:45:35;;;;;;;137.60;37.90;;;5.00;99.90;;;;;;5031296;28;20041;-74
2021/01/11 07:48:01;;;;;;;118.30;36.30;;;5.00;99.90;;;;;;5030110;28;20021;-75
2021/01/11 07:50:30;;;;;;;117.53;37.97;;;5.00;99.90;;;;;;5030726;28;20029;-74
2021/01/11 07:52:56;;;;;;;129.85;38.03;;;5.00;99.90;;;;;;5030761;28;20025;-74
2021/01/11 07:55:37;;;;;;;161.80;42.28;;;4.90;99.90;;;;;;5031064;28;20071;-74
2021/01/11 07:58:02;;;;;;;132.88;39.75;;;4.90;99.90;;;;;;5029897;28;20021;-74
2021/01/11 08:00:28;;;;;;;154.20;42.30;;;5.00;99.90;;;;;;5030773;28;20021;-74
2021/01/11 08:02:55;;;;;;;141.18;40.22;;;4.90;99.90;;;;;;5028594;28;20029;-74
2021/01/11 08:05:21;;;;;;;151.43;44.75;;;4.90;99.90;;;;;;5030616;28;20040;-74
2021/01/11 08:07:57;;;;;;;177.52;42.78;;;5.00;99.90;;;;;;5029730;28;20033;-75
2021/01/11 08:10:23;;;;;;;156.35;40.90;;;4.90;99.90;;;;;;5029543;28;20036;-74
2021/01/11 08:12:49;;;;;;;126.10;41.47;;;4.90;99.90;;;;;;5031072;28;20490;-75
2021/01/11 08:15:17;;;;;;;147.25;43.55;;;4.90;99.90;;;;;;5030819;28;20084;-74
2021/01/11 08:17:44;;;;;;;126.47;42.72;;;4.90;99.90;;;;;;5031126;28;20033;-74
2021/01/11 08:20:09;;;;;;;149.30;43.13;;;4.90;99.90;;;;;;5031245;28;20029;-75
2021/01/11 08:22:35;;;;;;;146.13;41.83;;;4.90;99.90;;;;;;5030980;28;20143;-75
2021/01/11 08:25:01;;;;;;;135.93;40.38;;;5.00;99.90;;;;;;5029309;28;20115;-75
2021/01/11 08:27:40;;;;;;;158.63;42.80;;;5.00;99.90;;;;;;5029773;28;20029;-74
2021/01/11 08:30:08;;;;;;;133.52;40.92;;;4.90;99.90;;;;;;5029796;28;20017;-74
2021/01/11 08:32:34;;;;;;;125.55;38.10;;;5.00;99.90;;;;;;5029939;28;20033;-75
2021/01/11 08:35:09;;;;;;;147.15;41.83;;;5.00;99.90;;;;;;5030753;28;20105;-74
2021/01/11 08:37:35;;;;;;;144.35;38.88;;;5.00;99.90;;;;;;5031158;28;20037;-74
2021/01/11 08:40:05;;;;;;;131.05;39.45;;;5.10;99.90;;;;;;5030725;28;20037;-74
2021/01/11 08:42:31;;;;;;;140.40;39.45;;;5.10;99.90;;;;;;5029811;28;20096;-74
2021/01/11 08:45:28;;;;;;;135.50;39.47;;;5.10;99.90;;;;;;5030579;28;20417;-74
2021/01/11 08:47:59;;;;;;;129.20;38.97;;;5.10;99.90;;;;;;5030981;28;20424;-75
2021/01/11 08:50:25;;;;;;;149.73;38.65;;;5.10;99.90;;;;;;5031118;28;20560;-74
2021/01/11 08:52:50;;;;;;;144.52;38.63;;;5.00;99.90;;;;;;5030625;28;20065;-75
2021/01/11 08:55:18;;;;;;;140.63;38.53;;;5.00;99.90;;;;;;5033141;28;20179;-74
2021/01/11 08:57:57;;;;;;;152.00;38.92;;;5.10;99.90;;;;;;5034604;28;20028;-75
2021/01/11 09:00:23;;;;;;;124.72;39.00;;;5.00;99.90;;;;;;5034489;28;20021;-74
2021/01/11 09:02:49;;;;;;;120.85;38.63;;;5.00;99.90;;;;;;5034498;28;20434;-75
2021/01/11 09:05:16;;;;;;;106.53;36.92;;;5.00;99.90;;;;;;5033828;28;20037;-74
2021/01/11 09:07:42;;;;;;;110.50;35.80;;;5.00;99.90;;;;;;5034027;28;20030;-74
2021/01/11 09:10:18;;;;;;;96.72;35.22;;;5.00;99.90;;;;;;5033946;28;20037;-75
2021/01/11 09:12:44;;;;;;;106.07;32.85;;;5.00;99.90;;;;;;5034485;28;20025;-75
2021/01/11 09:15:10;;;;;;;108.00;31.90;;;5.00;99.90;;;;;;5032335;28;20509;-74
2021/01/11 09:17:36;;;;;;;124.03;35.42;;;5.10;99.90;;;;;;5032970;28;20056;-75
2021/01/11 09:20:04;;;;;;;137.52;36.53;;;5.00;99.90;;;;;;5033936;28;20026;-75
2021/01/11 09:22:31;;;;;;;130.95;39.20;;;5.00;99.90;;;;;;5032762;28;20044;-74
2021/01/11 09:24:57;;;;;;;123.57;36.45;;;5.00;99.90;;;;;;5033546;28;20057;-75
2021/01/11 09:27:24;;;;;;;113.03;35.20;;;5.10;99.90;;;;;;5033904;28;20056;-74
2021/01/11 09:29:51;;;;;;;140.23;36.30;;;5.10;99.90;;;;;;5033866;28;20024;-75
2021/01/11 09:32:18;;;;;;;111.50;36.63;;;5.10;99.90;;;;;;5032055;28;20033;-75
2021/01/11 09:34:44;;;;;;;127.43;35.63;;;5.10;99.90;;;;;;5032490;28;20025;-75
2021/01/11 09:37:12;;;;;;;121.50;34.00;;;5.10;99.90;;;;;;5052516;28;20025;-75
2021/01/11 09:39:38;;;;;;;119.85;33.28;;;5.10;99.90;;;;;;5045877;28;20021;-75
2021/01/11 09:42:04;;;;;;;127.53;33.25;;;5.10;99.90;;;;;;5031224;28;20040;-75
2021/01/11 09:44:30;;;;;;;115.13;36.80;;;5.10;99.90;;;;;;5032834;28;20025;-75
2021/01/11 09:46:57;;;;;;;117.85;33.38;;;5.10;99.90;;;;;;5033116;28;20063;-75
2021/01/11 09:49:24;;;;;;;102.30;29.10;;;5.20;99.90;;;;;;5032175;28;20028;-75
2021/01/11 09:51:50;;;;;;;124.65;31.98;;;5.20;99.90;;;;;;5041012;28;20025;-75
2021/01/11 09:54:18;;;;;;;110.72;29.85;;;5.20;99.90;;;;;;5051765;28;20025;-75
2021/01/11 09:56:44;;;;;;;102.43;30.35;;;5.20;99.90;;;;;;5053322;28;20029;-75
2021/01/11 09:59:10;;;;;;;110.63;31.77;;;5.20;99.90;;;;;;5053260;28;20044;-75
2021/01/11 10:01:43;;;;;;;111.60;30.67;;;5.20;99.90;;;;;;5053310;28;20032;-75
2021/01/11 10:04:11;;;;;;;103.38;29.88;;;5.20;99.90;;;;;;5053036;28;20025;-75
2021/01/11 10:06:37;;;;;;;84.97;30.42;;;5.20;99.90;;;;;;5037966;28;20075;-75
2021/01/11 10:09:03;;;;;;;102.20;31.38;;;5.20;99.90;;;;;;5033205;28;20021;-75
2021/01/11 10:11:29;;;;;;;86.75;30.75;;;5.20;99.90;;;;;;5033109;28;20017;-76
2021/01/11 10:13:54;;;;;;;91.53;30.67;;;5.20;99.90;;;;;;5033159;28;20028;-75
2021/01/11 10:16:20;;;;;;;94.78;30.67;;;5.20;99.90;;;;;;5032327;28;20057;-75
2021/01/11 10:18:46;;;;;;;92.20;26.65;;;5.20;99.90;;;;;;5032288;28;20040;-75
2021/01/11 10:21:13;;;;;;;84.05;27.55;;;5.20;99.90;;;;;;5031707;28;20028;-75
2021/01/11 10:23:39;;;;;;;99.30;27.77;;;5.20;99.90;;;;;;5025768;28;20069;-75
2021/01/11 10:26:04;;;;;;;98.15;28.15;;;5.20;99.90;;;;;;5031355;28;20438;-75
2021/01/11 10:28:30;;;;;;;89.13;26.55;;;5.20;99.90;;;;;;5024028;28;20076;-76
2021/01/11 10:30:57;;;;;;;82.38;25.67;;;5.20;99.90;;;;;;5012606;28;20018;-75
2021/01/11 10:33:22;;;;;;;74.53;28.25;;;5.20;99.90;;;;;;5030365;28;20119;-76
2021/01/11 10:35:54;;;;;;;87.40;30.83;;;5.20;99.90;;;;;;5032433;28;20489;-75
2021/01/11 10:38:20;;;;;;;98.28;30.55;;;5.20;99.90;;;;;;5032531;28;20036;-77
2021/01/11 10:40:45;;;;;;;76.13;26.17;;;5.20;99.90;;;;;;5026090;28;20021;-76
2021/01/11 10:43:11;;;;;;;89.15;28.15;;;5.20;99.90;;;;;;5031472;28;20071;-75
2021/01/11 10:45:36;;;;;;;80.00;29.00;;;5.20;99.90;;;;;;5012155;28;20119;-75
2021/01/11 10:48:02;;;;;;;80.90;27.00;;;5.20;99.90;;;;;;5012423;28;20045;-74
2021/01/11 10:50:28;;;;;;;78.75;27.10;;;5.20;99.90;;;;;;5029042;28;20028;-75
2021/01/11 10:52:54;;;;;;;77.05;25.90;;;5.30;99.90;;;;;;5032123;28;20056;-75
2021/01/11 10:55:19;;;;;;;74.55;25.48;;;5.30;99.90;;;;;;5032028;28;20446;-75
2021/01/11 10:57:45;;;;;;;74.70;25.55;;;5.30;99.90;;;;;;5032249;28;20029;-76
2021/01/11 11:00:12;;;;;;;88.30;25.02;;;5.30;99.90;;;;;;5031960;28;20032;-77
2021/01/11 11:02:38;;;;;;;74.60;23.40;;;5.30;99.90;;;;;;5030732;28;20037;-76
2021/01/11 11:05:06;;;;;;;79.53;22.27;;;5.30;99.90;;;;;;5029076;28;20104;-77
2021/01/11 11:07:36;;;;;;;71.43;23.40;;;5.30;99.90;;;;;;5016716;28;20490;-76
2021/01/11 11:10:03;;;;;;;92.88;23.75;;;5.30;99.90;;;;;;5011834;28;20026;-76
2021/01/11 11:12:29;;;;;;;57.88;22.27;;;5.30;99.90;;;;;;5010919;28;20096;-76
2021/01/11 11:14:55;;;;;;;82.03;24.63;;;5.30;99.90;;;;;;5017732;28;20033;-76
2021/01/11 11:17:20;;;;;;;68.85;23.52;;;5.30;99.90;;;;;;5029996;28;20477;-76
2021/01/11 11:19:46;;;;;;;76.82;22.58;;;5.20;99.90;;;;;;5030177;28;20679;-75
2021/01/11 11:22:11;;;;;;;68.63;26.35;;;5.20;99.90;;;;;;5031948;28;20040;-76
2021/01/11 11:24:37;;;;;;;72.18;25.35;;;5.20;99.90;;;;;;5026134;28;20066;-76
2021/01/11 11:27:02;;;;;;;87.43;26.02;;;5.20;99.90;;;;;;5011536;28;20033;-75
2021/01/11 11:29:28;;;;;;;78.35;27.65;;;5.20;99.90;;;;;;5011879;28;20065;-75
2021/01/11 11:31:54;;;;;;;77.63;26.42;;;5.20;99.90;;;;;;5012155;28;20053;-76
2021/01/11 11:34:19;;;;;;;89.68;28.98;;;5.10;99.90;;;;;;5011827;28;20026;-75
2021/01/11 11:36:45;;;;;;;79.60;28.48;;;5.10;99.90;;;;;;5031756;28;20116;-75
2021/01/11 11:39:10;;;;;;;82.65;27.13;;;5.10;99.90;;;;;;5029546;28;20033;-75
2021/01/11 11:41:36;;;;;;;90.47;26.60;;;5.10;99.90;;;;;;5010652;28;20026;-75
2021/01/11 11:44:02;;;;;;;76.90;26.90;;;5.20;99.90;;;;;;5011784;28;20155;-76
2021/01/11 11:46:29;;;;;;;74.57;22.65;;;5.10;99.90;;;;;;5012914;28;20116;-75
2021/01/11 11:48:56;;;;;;;80.22;24.75;;;5.20;99.90;;;;;;5010694;28;20127;-76
2021/01/11 11:51:22;;;;;;;92.70;24.52;;;5.20;99.90;;;;;;5011861;28;20053;-75
2021/01/11 11:53:47;;;;;;;78.38;24.02;;;5.20;99.90;;;;;;5011610;28;20088;-76
2021/01/11 11:56:13;;;;;;;75.50;23.10;;;5.20;99.90;;;;;;5029739;28;20048;-76
2021/01/11 11:58:38;;;;;;;96.20;26.13;;;5.30;99.90;;;;;;5030327;28;20025;-76
2021/01/11 12:01:04;;;;;;;87.28;25.65;;;5.20;99.90;;;;;;5031404;28;20025;-77
2021/01/11 12:03:29;;;;;;;88.13;25.38;;;5.20;99.90;;;;;;5031511;28;20028;-76
2021/01/11 12:05:55;;;;;;;79.47;26.17;;;5.10;99.90;;;;;;5017981;28;20161;-77
2021/01/11 12:08:21;;;;;;;72.80;24.77;;;5.10;99.90;;;;;;5011796;28;20475;-77
2021/01/11 12:10:46;;;;;;;75.78;23.63;;;5.10;99.90;;;;;;5011510;28;20483;-77
2021/01/11 12:13:12;;;;;;;73.53;24.50;;;5.10;99.90;;;;;;5011727;28;20029;-77
2021/01/11 12:15:37;;;;;;;73.47;24.73;;;5.10;99.90;;;;;;5018995;28;20440;-77
2021/01/11 12:18:03;;;;;;;82.65;25.55;;;5.10;99.90;;;;;;5029641;28;20029;-76
2021/01/11 12:20:29;;;;;;;68.90;24.08;;;5.00;99.90;;;;;;5029882;28;20037;-77
2021/01/11 12:22:54;;;;;;;82.78;28.35;;;5.00;99.90;;;;;;5031431;28;20025;-76
2021/01/11 12:25:20;;;;;;;75.05;25.05;;;5.00;99.90;;;;;;5019635;28;20041;-77
2021/01/11 12:27:45;;;;;;;101.15;26.15;;;5.00;99.90;;;;;;5011885;28;20030;-77
2021/01/11 12:30:11;;;;;;;91.75;27.83;;;5.00;99.90;;;;;;5034679;28;20052;-76
2021/01/11 12:32:40;;;;;;;104.38;31.40;;;5.00;99.90;;;;;;5033819;28;20102;-77
2021/01/11 12:35:06;;;;;;;82.15;30.80;;;4.90;99.90;;;;;;5034777;28;20018;-77
2021/01/11 12:37:32;;;;;;;105.43;32.58;;;5.00;99.90;;;;;;5034850;28;20029;-77
2021/01/11 12:39:58;;;;;;;98.72;31.85;;;4.90;99.90;;;;;;5019974;28;20034;-77